sensor_id;sensor_type;location;lat;lon;timestamp;P1;durP1;ratioP1;P2;durP2;ratioP2
7013;SDS011;3547;50.774;12.918;2023-03-23T00:04:07;0.60;;;0.57;;
7013;SDS011;3547;50.774;12.918;2023-03-23T00:06:33;0.70;;;0.50;;
7013;SDS011;3547;50.774;12.918;2023-03-23T00:09:03;0.60;;;0.60;;
7013;SDS011;3547;50.774;12.918;2023-03-23T00:11:32;0.40;;;0.37;;
7013;SDS011;3547;50.774;12.918;2023-03-23T00:14:00;0.47;;;0.47;;
7013;SDS011;3547;50.774;12.918;2023-03-23T00:20:00;0.33;;;0.33;;
7013;SDS011;3547;50.774;12.918;2023-03-23T00:22:32;0.67;;;0.43;;
7013;SDS011;3547;50.774;12.918;2023-03-23T00:30:16;0.40;;;0.33;;
7013;SDS011;3547;50.774;12.918;2023-03-23T00:32:46;0.33;;;0.33;;
7013;SDS011;3547;50.774;12.918;2023-03-23T00:35:19;2.33;;;0.70;;
7013;SDS011;3547;50.774;12.918;2023-03-23T00:37:50;0.83;;;0.50;;
7013;SDS011;3547;50.774;12.918;2023-03-23T00:40:16;0.67;;;0.67;;
7013;SDS011;3547;50.774;12.918;2023-03-23T00:42:43;0.70;;;0.50;;
7013;SDS011;3547;50.774;12.918;2023-03-23T00:45:09;0.80;;;0.50;;
7013;SDS011;3547;50.774;12.918;2023-03-23T00:47:37;0.67;;;0.50;;
7013;SDS011;3547;50.774;12.918;2023-03-23T00:50:12;2.33;;;0.77;;
7013;SDS011;3547;50.774;12.918;2023-03-23T00:52:39;0.63;;;0.47;;
7013;SDS011;3547;50.774;12.918;2023-03-23T00:55:06;0.80;;;0.70;;
7013;SDS011;3547;50.774;12.918;2023-03-23T00:57:32;0.60;;;0.60;;
7013;SDS011;3547;50.774;12.918;2023-03-23T01:00:09;0.50;;;0.50;;
7013;SDS011;3547;50.774;12.918;2023-03-23T01:02:46;0.60;;;0.40;;
7013;SDS011;3547;50.774;12.918;2023-03-23T01:22:43;0.47;;;0.47;;
7013;SDS011;3547;50.774;12.918;2023-03-23T01:25:13;1.07;;;0.50;;
7013;SDS011;3547;50.774;12.918;2023-03-23T01:30:18;0.87;;;0.70;;
7013;SDS011;3547;50.774;12.918;2023-03-23T01:32:50;0.20;;;0.20;;
7013;SDS011;3547;50.774;12.918;2023-03-23T01:35:19;0.83;;;0.70;;
7013;SDS011;3547;50.774;12.918;2023-03-23T01:41:13;0.40;;;0.40;;
7013;SDS011;3547;50.774;12.918;2023-03-23T01:46:54;0.77;;;0.77;;
7013;SDS011;3547;50.774;12.918;2023-03-23T01:54:41;0.87;;;0.63;;
7013;SDS011;3547;50.774;12.918;2023-03-23T01:57:11;0.87;;;0.50;;
7013;SDS011;3547;50.774;12.918;2023-03-23T02:02:14;1.23;;;0.50;;
7013;SDS011;3547;50.774;12.918;2023-03-23T02:04:48;0.90;;;0.70;;
7013;SDS011;3547;50.774;12.918;2023-03-23T02:13:18;1.00;;;0.90;;
7013;SDS011;3547;50.774;12.918;2023-03-23T02:15:53;0.67;;;0.67;;
7013;SDS011;3547;50.774;12.918;2023-03-23T02:30:35;0.60;;;0.60;;
7013;SDS011;3547;50.774;12.918;2023-03-23T02:33:22;0.57;;;0.53;;
7013;SDS011;3547;50.774;12.918;2023-03-23T02:36:13;0.40;;;0.40;;
7013;SDS011;3547;50.774;12.918;2023-03-23T02:38:51;0.50;;;0.50;;
7013;SDS011;3547;50.774;12.918;2023-03-23T02:41:21;2.33;;;0.70;;
7013;SDS011;3547;50.774;12.918;2023-03-23T02:43:55;0.53;;;0.53;;
7013;SDS011;3547;50.774;12.918;2023-03-23T02:46:22;0.60;;;0.50;;
7013;SDS011;3547;50.774;12.918;2023-03-23T02:48:50;0.87;;;0.87;;
7013;SDS011;3547;50.774;12.918;2023-03-23T02:51:22;1.17;;;0.70;;
7013;SDS011;3547;50.774;12.918;2023-03-23T02:53:51;1.10;;;0.67;;
7013;SDS011;3547;50.774;12.918;2023-03-23T02:56:20;1.20;;;0.97;;
7013;SDS011;3547;50.774;12.918;2023-03-23T02:58:49;2.80;;;0.60;;
7013;SDS011;3547;50.774;12.918;2023-03-23T03:04:10;0.70;;;0.57;;
7013;SDS011;3547;50.774;12.918;2023-03-23T03:06:46;0.80;;;0.80;;
7013;SDS011;3547;50.774;12.918;2023-03-23T03:11:50;0.73;;;0.73;;
7013;SDS011;3547;50.774;12.918;2023-03-23T03:22:20;0.63;;;0.60;;
7013;SDS011;3547;50.774;12.918;2023-03-23T03:24:50;0.90;;;0.73;;
7013;SDS011;3547;50.774;12.918;2023-03-23T03:27:20;0.93;;;0.93;;
7013;SDS011;3547;50.774;12.918;2023-03-23T03:30:03;0.70;;;0.70;;
7013;SDS011;3547;50.774;12.918;2023-03-23T03:32:43;0.50;;;0.50;;
7013;SDS011;3547;50.774;12.918;2023-03-23T03:35:19;0.80;;;0.70;;
7013;SDS011;3547;50.774;12.918;2023-03-23T03:37:47;1.13;;;0.60;;
7013;SDS011;3547;50.774;12.918;2023-03-23T03:40:16;1.00;;;0.90;;
7013;SDS011;3547;50.774;12.918;2023-03-23T03:45:19;2.33;;;0.90;;
7013;SDS011;3547;50.774;12.918;2023-03-23T03:47:51;0.93;;;0.83;;
7013;SDS011;3547;50.774;12.918;2023-03-23T03:50:27;1.60;;;1.00;;
7013;SDS011;3547;50.774;12.918;2023-03-23T03:52:53;1.53;;;1.00;;
7013;SDS011;3547;50.774;12.918;2023-03-23T03:55:20;0.80;;;0.70;;
7013;SDS011;3547;50.774;12.918;2023-03-23T04:03:05;1.20;;;0.90;;
7013;SDS011;3547;50.774;12.918;2023-03-23T04:08:25;4.17;;;0.77;;
7013;SDS011;3547;50.774;12.918;2023-03-23T04:13:24;0.77;;;0.77;;
7013;SDS011;3547;50.774;12.918;2023-03-23T04:18:27;1.20;;;1.10;;
7013;SDS011;3547;50.774;12.918;2023-03-23T04:23:37;1.87;;;1.10;;
7013;SDS011;3547;50.774;12.918;2023-03-23T04:34:00;1.00;;;0.90;;
7013;SDS011;3547;50.774;12.918;2023-03-23T04:36:27;0.70;;;0.70;;
7013;SDS011;3547;50.774;12.918;2023-03-23T04:39:02;1.27;;;1.17;;
7013;SDS011;3547;50.774;12.918;2023-03-23T04:41:32;1.80;;;0.90;;
7013;SDS011;3547;50.774;12.918;2023-03-23T04:43:58;1.37;;;1.00;;
7013;SDS011;3547;50.774;12.918;2023-03-23T04:46:28;1.67;;;1.00;;
7013;SDS011;3547;50.774;12.918;2023-03-23T04:49:13;0.83;;;0.80;;
7013;SDS011;3547;50.774;12.918;2023-03-23T04:55:12;0.63;;;0.60;;
7013;SDS011;3547;50.774;12.918;2023-03-23T04:57:38;0.73;;;0.73;;
7013;SDS011;3547;50.774;12.918;2023-03-23T05:00:06;0.60;;;0.60;;
7013;SDS011;3547;50.774;12.918;2023-03-23T05:02:37;0.90;;;0.67;;
7013;SDS011;3547;50.774;12.918;2023-03-23T05:05:05;0.70;;;0.70;;
7013;SDS011;3547;50.774;12.918;2023-03-23T05:07:33;1.07;;;0.80;;
7013;SDS011;3547;50.774;12.918;2023-03-23T05:12:39;0.60;;;0.60;;
7013;SDS011;3547;50.774;12.918;2023-03-23T05:15:06;1.17;;;0.70;;
7013;SDS011;3547;50.774;12.918;2023-03-23T05:17:33;1.50;;;0.83;;
7013;SDS011;3547;50.774;12.918;2023-03-23T05:22:57;1.07;;;0.60;;
7013;SDS011;3547;50.774;12.918;2023-03-23T05:25:27;2.23;;;0.70;;
7013;SDS011;3547;50.774;12.918;2023-03-23T05:28:54;1.47;;;1.17;;
7013;SDS011;3547;50.774;12.918;2023-03-23T05:31:24;1.43;;;1.10;;
7013;SDS011;3547;50.774;12.918;2023-03-23T05:33:51;0.50;;;0.50;;
7013;SDS011;3547;50.774;12.918;2023-03-23T05:36:17;0.80;;;0.63;;
7013;SDS011;3547;50.774;12.918;2023-03-23T05:38:44;0.90;;;0.80;;
7013;SDS011;3547;50.774;12.918;2023-03-23T05:41:39;1.20;;;1.07;;
7013;SDS011;3547;50.774;12.918;2023-03-23T05:50:18;0.97;;;0.87;;
7013;SDS011;3547;50.774;12.918;2023-03-23T06:03:06;0.70;;;0.50;;
7013;SDS011;3547;50.774;12.918;2023-03-23T06:05:32;1.07;;;0.90;;
7013;SDS011;3547;50.774;12.918;2023-03-23T06:07:59;1.00;;;0.80;;
7013;SDS011;3547;50.774;12.918;2023-03-23T06:10:28;0.77;;;0.77;;
7013;SDS011;3547;50.774;12.918;2023-03-23T06:13:14;0.70;;;0.70;;
7013;SDS011;3547;50.774;12.918;2023-03-23T06:15:41;2.35;;;0.90;;
7013;SDS011;3547;50.774;12.918;2023-03-23T06:18:22;0.70;;;0.70;;
7013;SDS011;3547;50.774;12.918;2023-03-23T06:33:50;0.70;;;0.70;;
7013;SDS011;3547;50.774;12.918;2023-03-23T06:36:19;0.83;;;0.80;;
7013;SDS011;3547;50.774;12.918;2023-03-23T06:38:49;0.60;;;0.57;;
7013;SDS011;3547;50.774;12.918;2023-03-23T06:41:15;0.85;;;0.85;;
7013;SDS011;3547;50.774;12.918;2023-03-23T06:44:07;1.20;;;0.70;;
7013;SDS011;3547;50.774;12.918;2023-03-23T06:46:54;1.10;;;1.00;;
7013;SDS011;3547;50.774;12.918;2023-03-23T06:49:20;1.07;;;0.97;;
7013;SDS011;3547;50.774;12.918;2023-03-23T06:51:46;0.77;;;0.73;;
7013;SDS011;3547;50.774;12.918;2023-03-23T06:54:12;1.40;;;0.57;;
7013;SDS011;3547;50.774;12.918;2023-03-23T06:56:38;1.20;;;1.10;;
7013;SDS011;3547;50.774;12.918;2023-03-23T06:59:05;1.77;;;0.80;;
7013;SDS011;3547;50.774;12.918;2023-03-23T07:01:31;0.98;;;0.90;;
7013;SDS011;3547;50.774;12.918;2023-03-23T07:03:57;1.20;;;1.02;;
7013;SDS011;3547;50.774;12.918;2023-03-23T07:06:23;1.10;;;1.00;;
7013;SDS011;3547;50.774;12.918;2023-03-23T07:08:52;2.33;;;1.05;;
7013;SDS011;3547;50.774;12.918;2023-03-23T07:11:19;1.15;;;1.05;;
7013;SDS011;3547;50.774;12.918;2023-03-23T07:13:45;1.60;;;1.00;;
7013;SDS011;3547;50.774;12.918;2023-03-23T07:16:31;0.90;;;0.82;;
7013;SDS011;3547;50.774;12.918;2023-03-23T07:18:58;1.10;;;0.80;;
7013;SDS011;3547;50.774;12.918;2023-03-23T07:21:25;0.93;;;0.90;;
7013;SDS011;3547;50.774;12.918;2023-03-23T07:23:52;1.38;;;1.02;;
7013;SDS011;3547;50.774;12.918;2023-03-23T07:26:19;0.65;;;0.65;;
7013;SDS011;3547;50.774;12.918;2023-03-23T07:28:50;0.82;;;0.70;;
7013;SDS011;3547;50.774;12.918;2023-03-23T07:33:48;0.93;;;0.85;;
7013;SDS011;3547;50.774;12.918;2023-03-23T07:36:25;0.80;;;0.80;;
7013;SDS011;3547;50.774;12.918;2023-03-23T07:38:55;1.63;;;0.90;;
7013;SDS011;3547;50.774;12.918;2023-03-23T07:41:22;1.60;;;1.00;;
7013;SDS011;3547;50.774;12.918;2023-03-23T07:46:25;1.63;;;1.20;;
7013;SDS011;3547;50.774;12.918;2023-03-23T07:48:51;0.80;;;0.68;;
7013;SDS011;3547;50.774;12.918;2023-03-23T07:51:17;1.10;;;0.90;;
7013;SDS011;3547;50.774;12.918;2023-03-23T07:53:44;1.10;;;0.93;;
7013;SDS011;3547;50.774;12.918;2023-03-23T07:56:11;1.00;;;0.90;;
7013;SDS011;3547;50.774;12.918;2023-03-23T07:58:41;1.20;;;0.90;;
7013;SDS011;3547;50.774;12.918;2023-03-23T08:01:11;1.00;;;0.90;;
7013;SDS011;3547;50.774;12.918;2023-03-23T08:03:39;1.33;;;0.90;;
7013;SDS011;3547;50.774;12.918;2023-03-23T08:06:08;1.50;;;0.90;;
7013;SDS011;3547;50.774;12.918;2023-03-23T08:08:36;1.30;;;0.95;;
7013;SDS011;3547;50.774;12.918;2023-03-23T08:11:03;1.20;;;0.82;;
7013;SDS011;3547;50.774;12.918;2023-03-23T08:13:31;1.17;;;1.08;;
7013;SDS011;3547;50.774;12.918;2023-03-23T08:15:59;1.10;;;0.98;;
7013;SDS011;3547;50.774;12.918;2023-03-23T08:18:30;0.60;;;0.60;;
7013;SDS011;3547;50.774;12.918;2023-03-23T08:28:48;1.45;;;1.13;;
7013;SDS011;3547;50.774;12.918;2023-03-23T08:31:14;0.95;;;0.82;;
7013;SDS011;3547;50.774;12.918;2023-03-23T08:33:45;0.95;;;0.80;;
7013;SDS011;3547;50.774;12.918;2023-03-23T08:37:08;1.10;;;1.00;;
7013;SDS011;3547;50.774;12.918;2023-03-23T08:39:35;1.00;;;0.88;;
7013;SDS011;3547;50.774;12.918;2023-03-23T08:42:01;0.90;;;0.88;;
7013;SDS011;3547;50.774;12.918;2023-03-23T08:44:30;1.15;;;1.13;;
7013;SDS011;3547;50.774;12.918;2023-03-23T08:47:17;1.35;;;1.10;;
7013;SDS011;3547;50.774;12.918;2023-03-23T08:49:43;1.20;;;1.10;;
7013;SDS011;3547;50.774;12.918;2023-03-23T08:52:10;1.25;;;1.15;;
7013;SDS011;3547;50.774;12.918;2023-03-23T08:54:57;1.73;;;1.00;;
7013;SDS011;3547;50.774;12.918;2023-03-23T08:57:26;1.20;;;1.00;;
7013;SDS011;3547;50.774;12.918;2023-03-23T08:59:53;1.30;;;1.20;;
7013;SDS011;3547;50.774;12.918;2023-03-23T09:02:20;2.17;;;1.17;;
7013;SDS011;3547;50.774;12.918;2023-03-23T09:04:46;2.08;;;1.20;;
7013;SDS011;3547;50.774;12.918;2023-03-23T09:07:12;1.40;;;0.90;;
7013;SDS011;3547;50.774;12.918;2023-03-23T09:09:40;0.80;;;0.75;;
7013;SDS011;3547;50.774;12.918;2023-03-23T09:12:07;1.02;;;0.95;;
7013;SDS011;3547;50.774;12.918;2023-03-23T09:14:34;1.53;;;0.90;;
7013;SDS011;3547;50.774;12.918;2023-03-23T09:17:03;0.88;;;0.88;;
7013;SDS011;3547;50.774;12.918;2023-03-23T09:22:46;0.88;;;0.80;;
7013;SDS011;3547;50.774;12.918;2023-03-23T09:25:35;1.20;;;1.10;;
7013;SDS011;3547;50.774;12.918;2023-03-23T09:28:01;3.10;;;0.60;;
7013;SDS011;3547;50.774;12.918;2023-03-23T09:30:29;1.05;;;0.90;;
7013;SDS011;3547;50.774;12.918;2023-03-23T09:33:13;1.15;;;0.85;;
7013;SDS011;3547;50.774;12.918;2023-03-23T09:38:17;1.90;;;1.20;;
7013;SDS011;3547;50.774;12.918;2023-03-23T09:44:01;3.03;;;1.65;;
7013;SDS011;3547;50.774;12.918;2023-03-23T09:46:56;1.23;;;0.98;;
7013;SDS011;3547;50.774;12.918;2023-03-23T09:54:20;1.58;;;0.90;;
7013;SDS011;3547;50.774;12.918;2023-03-23T09:56:49;1.80;;;1.00;;
7013;SDS011;3547;50.774;12.918;2023-03-23T09:59:19;1.15;;;1.05;;
7013;SDS011;3547;50.774;12.918;2023-03-23T10:01:50;1.48;;;1.08;;
7013;SDS011;3547;50.774;12.918;2023-03-23T10:07:18;1.00;;;0.90;;
7013;SDS011;3547;50.774;12.918;2023-03-23T10:09:47;0.80;;;0.80;;
7013;SDS011;3547;50.774;12.918;2023-03-23T10:12:36;0.80;;;0.80;;
7013;SDS011;3547;50.774;12.918;2023-03-23T10:15:15;0.75;;;0.75;;
7013;SDS011;3547;50.774;12.918;2023-03-23T11:31:34;1.10;;;0.95;;
7013;SDS011;3547;50.774;12.918;2023-03-23T11:37:05;1.17;;;0.80;;
7013;SDS011;3547;50.774;12.918;2023-03-23T11:39:55;1.88;;;1.38;;
7013;SDS011;3547;50.774;12.918;2023-03-23T11:51:05;1.30;;;1.20;;
7013;SDS011;3547;50.774;12.918;2023-03-23T11:56:45;1.45;;;0.90;;
7013;SDS011;3547;50.774;12.918;2023-03-23T11:59:17;1.90;;;1.27;;
7013;SDS011;3547;50.774;12.918;2023-03-23T12:10:52;1.30;;;1.20;;
7013;SDS011;3547;50.774;12.918;2023-03-23T12:16:46;0.88;;;0.77;;
7013;SDS011;3547;50.774;12.918;2023-03-23T12:19:21;1.55;;;1.00;;
7013;SDS011;3547;50.774;12.918;2023-03-23T12:37:04;1.35;;;1.25;;
7013;SDS011;3547;50.774;12.918;2023-03-23T12:39:42;3.53;;;1.08;;
7013;SDS011;3547;50.774;12.918;2023-03-23T13:08:41;1.92;;;1.30;;
7013;SDS011;3547;50.774;12.918;2023-03-23T13:11:21;1.45;;;1.10;;
7013;SDS011;3547;50.774;12.918;2023-03-23T13:13:59;1.80;;;1.00;;
7013;SDS011;3547;50.774;12.918;2023-03-23T13:17:14;1.15;;;1.05;;
7013;SDS011;3547;50.774;12.918;2023-03-23T13:26:18;1.00;;;0.82;;
7013;SDS011;3547;50.774;12.918;2023-03-23T14:14:14;3.15;;;1.23;;
7013;SDS011;3547;50.774;12.918;2023-03-23T14:16:50;1.15;;;1.00;;
7013;SDS011;3547;50.774;12.918;2023-03-23T14:19:25;1.15;;;1.00;;
7013;SDS011;3547;50.774;12.918;2023-03-23T14:22:04;0.70;;;0.70;;
7013;SDS011;3547;50.774;12.918;2023-03-23T14:25:12;1.10;;;1.00;;
7013;SDS011;3547;50.774;12.918;2023-03-23T14:37:23;2.20;;;1.00;;
7013;SDS011;3547;50.774;12.918;2023-03-23T15:13:55;1.20;;;0.60;;
7013;SDS011;3547;50.774;12.918;2023-03-23T15:17:46;0.70;;;0.70;;
7013;SDS011;3547;50.774;12.918;2023-03-23T15:22:44;0.93;;;0.90;;
7013;SDS011;3547;50.774;12.918;2023-03-23T15:38:21;2.97;;;1.02;;
7013;SDS011;3547;50.774;12.918;2023-03-23T15:41:48;4.70;;;1.13;;
7013;SDS011;3547;50.774;12.918;2023-03-23T16:13:51;0.70;;;0.70;;
7013;SDS011;3547;50.774;12.918;2023-03-23T16:16:18;0.55;;;0.50;;
7013;SDS011;3547;50.774;12.918;2023-03-23T16:18:53;0.60;;;0.60;;
7013;SDS011;3547;50.774;12.918;2023-03-23T16:23:59;1.50;;;0.80;;
7013;SDS011;3547;50.774;12.918;2023-03-23T16:26:26;1.13;;;0.85;;
7013;SDS011;3547;50.774;12.918;2023-03-23T16:28:54;1.23;;;1.00;;
7013;SDS011;3547;50.774;12.918;2023-03-23T16:31:21;0.77;;;0.73;;
7013;SDS011;3547;50.774;12.918;2023-03-23T16:33:47;1.05;;;0.82;;
7013;SDS011;3547;50.774;12.918;2023-03-23T16:36:13;0.98;;;0.70;;
7013;SDS011;3547;50.774;12.918;2023-03-23T16:38:40;0.88;;;0.80;;
7013;SDS011;3547;50.774;12.918;2023-03-23T16:41:07;0.80;;;0.77;;
7013;SDS011;3547;50.774;12.918;2023-03-23T16:43:33;0.88;;;0.73;;
7013;SDS011;3547;50.774;12.918;2023-03-23T16:46:00;1.67;;;0.95;;
7013;SDS011;3547;50.774;12.918;2023-03-23T16:48:26;1.43;;;1.00;;
7013;SDS011;3547;50.774;12.918;2023-03-23T16:58:40;3.65;;;1.10;;
7013;SDS011;3547;50.774;12.918;2023-03-23T17:01:07;1.30;;;1.20;;
7013;SDS011;3547;50.774;12.918;2023-03-23T17:03:33;1.75;;;1.35;;
7013;SDS011;3547;50.774;12.918;2023-03-23T17:05:59;1.50;;;1.23;;
7013;SDS011;3547;50.774;12.918;2023-03-23T17:18:49;1.95;;;1.55;;
7013;SDS011;3547;50.774;12.918;2023-03-23T17:29:03;1.93;;;1.83;;
7013;SDS011;3547;50.774;12.918;2023-03-23T17:31:30;2.40;;;1.37;;
7013;SDS011;3547;50.774;12.918;2023-03-23T17:33:56;4.77;;;1.33;;
7013;SDS011;3547;50.774;12.918;2023-03-23T17:39:17;1.50;;;1.40;;
7013;SDS011;3547;50.774;12.918;2023-03-23T17:41:43;4.30;;;1.33;;
7013;SDS011;3547;50.774;12.918;2023-03-23T17:44:09;1.33;;;1.23;;
7013;SDS011;3547;50.774;12.918;2023-03-23T17:46:35;3.15;;;1.48;;
7013;SDS011;3547;50.774;12.918;2023-03-23T17:49:01;1.73;;;1.50;;
7013;SDS011;3547;50.774;12.918;2023-03-23T17:51:31;1.90;;;1.50;;
7013;SDS011;3547;50.774;12.918;2023-03-23T17:53:57;1.87;;;1.17;;
7013;SDS011;3547;50.774;12.918;2023-03-23T18:01:35;2.23;;;1.50;;
7013;SDS011;3547;50.774;12.918;2023-03-23T18:04:01;1.57;;;1.40;;
7013;SDS011;3547;50.774;12.918;2023-03-23T18:06:28;2.97;;;1.10;;
7013;SDS011;3547;50.774;12.918;2023-03-23T18:08:55;1.83;;;1.43;;
7013;SDS011;3547;50.774;12.918;2023-03-23T18:11:21;1.35;;;1.25;;
7013;SDS011;3547;50.774;12.918;2023-03-23T18:13:47;1.38;;;1.15;;
7013;SDS011;3547;50.774;12.918;2023-03-23T18:16:19;1.57;;;1.30;;
7013;SDS011;3547;50.774;12.918;2023-03-23T18:18:45;2.10;;;1.67;;
7013;SDS011;3547;50.774;12.918;2023-03-23T18:21:12;1.37;;;0.83;;
7013;SDS011;3547;50.774;12.918;2023-03-23T18:23:38;1.53;;;1.30;;
7013;SDS011;3547;50.774;12.918;2023-03-23T18:28:38;1.83;;;1.50;;
7013;SDS011;3547;50.774;12.918;2023-03-23T18:31:05;1.40;;;1.17;;
7013;SDS011;3547;50.774;12.918;2023-03-23T18:33:34;1.00;;;0.90;;
7013;SDS011;3547;50.774;12.918;2023-03-23T18:36:05;2.00;;;1.20;;
7013;SDS011;3547;50.774;12.918;2023-03-23T18:38:32;2.03;;;1.10;;
7013;SDS011;3547;50.774;12.918;2023-03-23T18:40:58;1.20;;;1.10;;
7013;SDS011;3547;50.774;12.918;2023-03-23T18:43:24;1.40;;;1.30;;
7013;SDS011;3547;50.774;12.918;2023-03-23T18:49:13;0.53;;;0.53;;
7013;SDS011;3547;50.774;12.918;2023-03-23T18:51:42;1.37;;;1.07;;
7013;SDS011;3547;50.774;12.918;2023-03-23T18:54:08;0.70;;;0.70;;
7013;SDS011;3547;50.774;12.918;2023-03-23T18:56:34;1.00;;;0.90;;
7013;SDS011;3547;50.774;12.918;2023-03-23T18:59:00;1.20;;;1.10;;
7013;SDS011;3547;50.774;12.918;2023-03-23T19:01:26;4.30;;;1.53;;
7013;SDS011;3547;50.774;12.918;2023-03-23T19:03:53;2.30;;;1.43;;
7013;SDS011;3547;50.774;12.918;2023-03-23T19:06:20;2.70;;;2.37;;
7013;SDS011;3547;50.774;12.918;2023-03-23T19:08:49;0.87;;;0.87;;
7013;SDS011;3547;50.774;12.918;2023-03-23T19:11:16;1.03;;;0.60;;
7013;SDS011;3547;50.774;12.918;2023-03-23T19:13:43;0.80;;;0.60;;
7013;SDS011;3547;50.774;12.918;2023-03-23T19:16:10;1.03;;;0.93;;
7013;SDS011;3547;50.774;12.918;2023-03-23T19:18:36;0.50;;;0.50;;
7013;SDS011;3547;50.774;12.918;2023-03-23T19:21:02;0.90;;;0.87;;
7013;SDS011;3547;50.774;12.918;2023-03-23T19:23:28;3.23;;;0.90;;
7013;SDS011;3547;50.774;12.918;2023-03-23T19:25:55;0.93;;;0.70;;
7013;SDS011;3547;50.774;12.918;2023-03-23T19:28:21;0.97;;;0.83;;
7013;SDS011;3547;50.774;12.918;2023-03-23T19:30:51;0.80;;;0.80;;
7013;SDS011;3547;50.774;12.918;2023-03-23T19:35:56;0.90;;;0.77;;
7013;SDS011;3547;50.774;12.918;2023-03-23T19:38:22;0.77;;;0.70;;
7013;SDS011;3547;50.774;12.918;2023-03-23T19:40:51;0.73;;;0.70;;
7013;SDS011;3547;50.774;12.918;2023-03-23T19:43:20;1.80;;;0.77;;
7013;SDS011;3547;50.774;12.918;2023-03-23T19:45:47;0.60;;;0.60;;
7013;SDS011;3547;50.774;12.918;2023-03-23T19:48:15;0.87;;;0.70;;
7013;SDS011;3547;50.774;12.918;2023-03-23T19:50:42;0.50;;;0.50;;
7013;SDS011;3547;50.774;12.918;2023-03-23T19:53:10;0.77;;;0.77;;
7013;SDS011;3547;50.774;12.918;2023-03-23T19:55:37;1.30;;;0.90;;
7013;SDS011;3547;50.774;12.918;2023-03-23T20:05:50;0.90;;;0.70;;
7013;SDS011;3547;50.774;12.918;2023-03-23T20:08:23;0.73;;;0.70;;
7013;SDS011;3547;50.774;12.918;2023-03-23T20:16:01;0.97;;;0.60;;
7013;SDS011;3547;50.774;12.918;2023-03-23T20:18:27;0.60;;;0.60;;
7013;SDS011;3547;50.774;12.918;2023-03-23T20:21:01;0.47;;;0.47;;
7013;SDS011;3547;50.774;12.918;2023-03-23T20:23:32;0.77;;;0.67;;
7013;SDS011;3547;50.774;12.918;2023-03-23T20:29:21;0.87;;;0.80;;
7013;SDS011;3547;50.774;12.918;2023-03-23T20:31:47;1.57;;;0.90;;
7013;SDS011;3547;50.774;12.918;2023-03-23T20:34:15;0.73;;;0.73;;
7013;SDS011;3547;50.774;12.918;2023-03-23T20:36:53;1.17;;;0.87;;
7013;SDS011;3547;50.774;12.918;2023-03-23T20:39:20;0.67;;;0.67;;
7013;SDS011;3547;50.774;12.918;2023-03-23T20:44:24;1.43;;;1.00;;
7013;SDS011;3547;50.774;12.918;2023-03-23T20:46:54;1.43;;;0.83;;
7013;SDS011;3547;50.774;12.918;2023-03-23T20:49:23;1.33;;;1.23;;
7013;SDS011;3547;50.774;12.918;2023-03-23T20:51:50;0.87;;;0.80;;
7013;SDS011;3547;50.774;12.918;2023-03-23T20:54:21;0.83;;;0.77;;
7013;SDS011;3547;50.774;12.918;2023-03-23T21:02:30;1.17;;;0.90;;
7013;SDS011;3547;50.774;12.918;2023-03-23T21:04:58;0.97;;;0.73;;
7013;SDS011;3547;50.774;12.918;2023-03-23T21:07:29;4.53;;;1.00;;
7013;SDS011;3547;50.774;12.918;2023-03-23T21:09:56;0.63;;;0.63;;
7013;SDS011;3547;50.774;12.918;2023-03-23T21:25:44;1.17;;;1.07;;
7013;SDS011;3547;50.774;12.918;2023-03-23T21:28:11;2.07;;;1.20;;
7013;SDS011;3547;50.774;12.918;2023-03-23T21:30:38;1.20;;;1.10;;
7013;SDS011;3547;50.774;12.918;2023-03-23T21:33:14;1.50;;;1.13;;
7013;SDS011;3547;50.774;12.918;2023-03-23T21:35:41;1.10;;;1.00;;
7013;SDS011;3547;50.774;12.918;2023-03-23T21:48:31;2.40;;;1.87;;
7013;SDS011;3547;50.774;12.918;2023-03-23T21:51:02;2.20;;;1.87;;
7013;SDS011;3547;50.774;12.918;2023-03-23T21:56:06;13.33;;;5.90;;
7013;SDS011;3547;50.774;12.918;2023-03-23T21:58:34;3.83;;;2.30;;
7013;SDS011;3547;50.774;12.918;2023-03-23T22:01:02;3.33;;;2.53;;
7013;SDS011;3547;50.774;12.918;2023-03-23T22:03:30;2.70;;;2.27;;
7013;SDS011;3547;50.774;12.918;2023-03-23T22:05:58;4.67;;;3.07;;
7013;SDS011;3547;50.774;12.918;2023-03-23T22:08:30;3.40;;;2.47;;
7013;SDS011;3547;50.774;12.918;2023-03-23T22:11:00;2.20;;;1.67;;
7013;SDS011;3547;50.774;12.918;2023-03-23T22:13:28;2.00;;;1.70;;
7013;SDS011;3547;50.774;12.918;2023-03-23T22:15:56;1.70;;;1.37;;
7013;SDS011;3547;50.774;12.918;2023-03-23T22:18:23;4.27;;;1.50;;
7013;SDS011;3547;50.774;12.918;2023-03-23T22:20:49;1.50;;;1.30;;
7013;SDS011;3547;50.774;12.918;2023-03-23T22:23:16;1.30;;;1.20;;
7013;SDS011;3547;50.774;12.918;2023-03-23T22:25:42;1.77;;;1.67;;
7013;SDS011;3547;50.774;12.918;2023-03-23T22:28:09;1.33;;;1.23;;
7013;SDS011;3547;50.774;12.918;2023-03-23T22:30:35;1.43;;;1.33;;
7013;SDS011;3547;50.774;12.918;2023-03-23T22:33:01;1.30;;;1.20;;
7013;SDS011;3547;50.774;12.918;2023-03-23T22:35:28;1.53;;;1.27;;
7013;SDS011;3547;50.774;12.918;2023-03-23T22:37:54;1.03;;;1.03;;
7013;SDS011;3547;50.774;12.918;2023-03-23T22:40:20;1.50;;;1.30;;
7013;SDS011;3547;50.774;12.918;2023-03-23T22:42:49;3.03;;;1.57;;
7013;SDS011;3547;50.774;12.918;2023-03-23T22:45:16;2.30;;;1.60;;
7013;SDS011;3547;50.774;12.918;2023-03-23T22:47:42;4.57;;;1.83;;
7013;SDS011;3547;50.774;12.918;2023-03-23T22:50:09;1.67;;;1.57;;
7013;SDS011;3547;50.774;12.918;2023-03-23T22:52:35;2.50;;;1.53;;
7013;SDS011;3547;50.774;12.918;2023-03-23T22:55:02;1.80;;;1.50;;
7013;SDS011;3547;50.774;12.918;2023-03-23T22:57:30;1.80;;;1.40;;
7013;SDS011;3547;50.774;12.918;2023-03-23T22:59:57;1.70;;;1.60;;
7013;SDS011;3547;50.774;12.918;2023-03-23T23:02:24;1.40;;;1.30;;
7013;SDS011;3547;50.774;12.918;2023-03-23T23:04:50;1.60;;;1.40;;
7013;SDS011;3547;50.774;12.918;2023-03-23T23:07:17;2.13;;;1.70;;
7013;SDS011;3547;50.774;12.918;2023-03-23T23:09:44;1.73;;;1.60;;
7013;SDS011;3547;50.774;12.918;2023-03-23T23:12:11;1.67;;;1.53;;
7013;SDS011;3547;50.774;12.918;2023-03-23T23:14:38;1.57;;;1.30;;
7013;SDS011;3547;50.774;12.918;2023-03-23T23:17:08;1.70;;;1.53;;
7013;SDS011;3547;50.774;12.918;2023-03-23T23:19:34;2.23;;;1.40;;
7013;SDS011;3547;50.774;12.918;2023-03-23T23:22:04;1.40;;;1.30;;
7013;SDS011;3547;50.774;12.918;2023-03-23T23:24:33;3.93;;;1.80;;
7013;SDS011;3547;50.774;12.918;2023-03-23T23:29:42;1.80;;;1.67;;
7013;SDS011;3547;50.774;12.918;2023-03-23T23:32:09;1.87;;;1.53;;
7013;SDS011;3547;50.774;12.918;2023-03-23T23:34:35;1.93;;;1.67;;
7013;SDS011;3547;50.774;12.918;2023-03-23T23:37:01;1.83;;;1.70;;
7013;SDS011;3547;50.774;12.918;2023-03-23T23:39:27;1.93;;;1.10;;
7013;SDS011;3547;50.774;12.918;2023-03-23T23:41:54;2.47;;;1.80;;
7013;SDS011;3547;50.774;12.918;2023-03-23T23:44:21;2.07;;;1.67;;
7013;SDS011;3547;50.774;12.918;2023-03-23T23:46:47;2.77;;;1.50;;
7013;SDS011;3547;50.774;12.918;2023-03-23T23:57:07;1.93;;;1.53;;
7013;SDS011;3547;50.774;12.918;2023-03-23T23:59:34;1.77;;;1.53;;
